Time;durP1;ratioP1;P1;durP2;ratioP2;P2;SDS_P1;SDS_P2;PMS_P1;PMS_P2;Temp;Humidity;BMP_temperature;BMP_pressure;BME280_temperature;BME280_humidity;BME280_pressure;Samples;Min_cycle;Max_cycle;Signal;HPM_P1;HPM_P2
2023/01/14 00:00:13;;;;;;;17.03;3.43;;;;;;;16.94;39.94;101478.13;5031622;28;20426;-70
2023/01/14 00:02:39;;;;;;;14.50;2.00;;;;;;;16.96;40.50;101480.72;5038635;28;20029;-70
2023/01/14 00:05:04;;;;;;;17.90;2.30;;;;;;;17.25;39.86;101476.41;5050959;28;20056;-70
2023/01/14 00:07:30;;;;;;;24.40;3.90;;;;;;;17.23;40.13;101472.97;5051471;28;20101;-70
2023/01/14 00:09:55;;;;;;;17.67;2.20;;;;;;;15.67;41.94;101471.38;5048894;28;20039;-70
2023/01/14 00:12:20;;;;;;;23.10;2.90;;;;;;;16.07;42.20;101468.78;5047444;28;20029;-70
2023/01/14 00:14:46;;;;;;;18.20;3.07;;;;;;;15.90;42.25;101476.19;5048158;28;20032;-70
2023/01/14 00:17:11;;;;;;;19.90;2.80;;;;;;;16.36;41.67;101467.22;5080468;28;20021;-71
2023/01/14 00:19:37;;;;;;;18.77;2.47;;;;;;;16.92;40.88;101468.50;5047316;28;20032;-70
2023/01/14 00:22:03;;;;;;;29.53;3.53;;;;;;;16.66;41.36;101472.63;5046581;28;20036;-70
2023/01/14 00:24:29;;;;;;;13.63;2.40;;;;;;;16.51;41.39;101473.88;5050977;28;20467;-70
2023/01/14 00:26:56;;;;;;;19.20;3.07;;;;;;;15.73;42.60;101479.16;5048900;28;20603;-70
2023/01/14 00:29:25;;;;;;;17.30;2.30;;;;;;;15.44;44.13;101473.59;5049415;28;20025;-70
2023/01/14 00:31:53;;;;;;;13.50;2.50;;;;;;;15.46;44.85;101476.19;5049851;28;20075;-70
2023/01/14 00:34:19;;;;;;;17.97;2.43;;;;;;;15.36;45.50;101477.25;5047709;28;20039;-71
2023/01/14 00:36:45;;;;;;;25.57;3.33;;;;;;;14.99;46.11;101475.31;5040934;28;20060;-70
2023/01/14 00:39:12;;;;;;;16.70;2.90;;;;;;;16.87;42.66;101465.06;5049146;28;20028;-72
2023/01/14 00:41:38;;;;;;;27.73;3.73;;;;;;;15.31;45.23;101482.63;5048609;28;20033;-73
2023/01/14 00:44:03;;;;;;;25.27;2.77;;;;;;;16.20;44.10;101468.50;5039251;28;20028;-72
2023/01/14 00:46:32;;;;;;;19.93;2.90;;;;;;;15.44;44.75;101463.06;5049721;28;20036;-70
2023/01/14 00:48:58;;;;;;;20.23;4.10;;;;;;;15.04;45.64;101474.38;5048647;28;20398;-70
2023/01/14 00:51:24;;;;;;;18.37;2.63;;;;;;;15.41;45.52;101484.19;5048687;28;20155;-70
2023/01/14 00:53:50;;;;;;;20.10;2.73;;;;;;;15.71;45.19;101476.53;5047287;28;20479;-70
2023/01/14 00:56:18;;;;;;;24.40;3.47;;;;;;;16.00;44.73;101482.13;5034681;28;20017;-72
2023/01/14 00:58:43;;;;;;;22.07;3.23;;;;;;;15.76;44.11;101485.22;5041965;28;20111;-72
2023/01/14 01:01:09;;;;;;;26.33;2.87;;;;;;;15.96;44.54;101478.69;5028719;28;20072;-70
2023/01/14 01:03:41;;;;;;;17.90;3.10;;;;;;;16.08;43.92;101474.91;5029236;28;20025;-70
2023/01/14 01:06:08;;;;;;;14.88;3.13;;;;;;;16.04;44.06;101476.75;5029354;28;20079;-70
2023/01/14 01:08:33;;;;;;;22.03;2.93;;;;;;;16.54;42.79;101472.94;5028359;28;20033;-70
2023/01/14 01:11:00;;;;;;;20.07;2.80;;;;;;;15.96;44.19;101467.28;5029167;28;20056;-70
2023/01/14 01:13:26;;;;;;;23.20;3.27;;;;;;;14.63;46.95;101473.34;5029997;28;20021;-70
2023/01/14 01:15:53;;;;;;;25.37;4.13;;;;;;;14.45;47.58;101473.59;5037176;28;20029;-71
2023/01/14 01:18:19;;;;;;;23.73;3.20;;;;;;;14.68;46.52;101474.09;5030940;28;20123;-70
2023/01/14 01:20:45;;;;;;;21.13;3.23;;;;;;;14.71;47.32;101471.44;5029335;28;20108;-70
2023/01/14 01:23:15;;;;;;;23.67;3.33;;;;;;;16.54;43.46;101462.38;5028760;28;20049;-70
2023/01/14 01:25:41;;;;;;;20.57;3.00;;;;;;;16.82;42.97;101456.44;5044375;28;20460;-70
2023/01/14 01:28:06;;;;;;;22.77;3.77;;;;;;;17.19;41.80;101460.75;5047317;28;20029;-70
2023/01/14 01:30:32;;;;;;;28.47;3.40;;;;;;;15.66;45.21;101461.72;5028027;28;20485;-70
2023/01/14 01:32:58;;;;;;;21.60;2.80;;;;;;;14.91;47.47;101451.78;5029239;28;20464;-70
2023/01/14 01:35:24;;;;;;;15.43;2.80;;;;;;;15.87;45.13;101452.53;5035252;28;20060;-70
2023/01/14 01:37:50;;;;;;;25.33;2.97;;;;;;;15.41;45.29;101442.06;5029902;28;20034;-70
2023/01/14 01:40:16;;;;;;;17.37;3.10;;;;;;;14.83;47.87;101458.97;5047016;28;20029;-71
2023/01/14 01:42:57;;;;;;;33.73;4.37;;;;;;;15.71;45.91;101460.72;5050403;28;20039;-70
2023/01/14 01:45:40;;;;;;;17.03;2.93;;;;;;;15.20;47.46;101453.00;5047360;28;20020;-70
2023/01/14 01:48:31;;;;;;;21.55;3.17;;;;;;;15.53;46.43;101450.59;5048503;28;20033;-70
2023/01/14 01:51:04;;;;;;;26.20;3.87;;;;;;;15.10;48.01;101447.91;5038871;28;20045;-70
2023/01/14 01:53:31;;;;;;;17.77;3.20;;;;;;;15.65;46.03;101438.91;5034197;28;20029;-70
2023/01/14 01:55:58;;;;;;;14.90;2.90;;;;;;;14.79;48.14;101441.50;5044349;28;20554;-70
2023/01/14 01:58:26;;;;;;;21.33;2.93;;;;;;;14.73;48.28;101438.06;5050874;28;20013;-70
2023/01/14 02:00:52;;;;;;;32.07;3.90;;;;;;;15.40;46.37;101429.78;5052627;28;20488;-70
2023/01/14 02:03:23;;;;;;;24.40;2.53;;;;;;;15.74;45.48;101425.53;5050886;28;20484;-70
2023/01/14 02:05:51;;;;;;;28.37;3.83;;;;;;;15.12;47.18;101412.78;5051787;28;20090;-70
2023/01/14 02:08:17;;;;;;;15.50;3.23;;;;;;;14.75;47.56;101414.34;5039141;28;20685;-70
2023/01/14 02:11:36;;;;;;;23.50;2.97;;;;;;;14.64;48.64;101406.66;5033920;28;20462;-70
2023/01/14 02:14:32;;;;;;;30.07;3.00;;;;;;;15.15;48.15;101396.94;5016861;28;20021;-70
2023/01/14 02:17:06;;;;;;;23.03;2.80;;;;;;;15.84;45.98;101397.22;5049792;28;20163;-70
2023/01/14 02:19:40;;;;;;;26.13;3.60;;;;;;;15.12;47.67;101397.00;5049850;28;20479;-70
2023/01/14 02:22:25;;;;;;;27.00;3.93;;;;;;;13.74;51.04;101387.03;5052403;28;20511;-70
2023/01/14 02:25:28;;;;;;;27.53;3.50;;;;;;;14.15;50.34;101382.03;5052427;28;20392;-70
2023/01/14 02:27:56;;;;;;;18.10;2.50;;;;;;;13.49;51.93;101390.88;5049388;28;20028;-72
2023/01/14 02:30:21;;;;;;;21.10;2.93;;;;;;;13.65;51.57;101387.16;5036384;28;20029;-70
2023/01/14 02:32:55;;;;;;;21.87;3.30;;;;;;;13.32;52.24;101397.16;5049507;28;20048;-73
2023/01/14 02:35:38;;;;;;;25.07;3.00;;;;;;;13.90;51.19;101397.31;5051692;28;20040;-73
2023/01/14 02:38:19;;;;;;;20.17;2.87;;;;;;;13.48;51.80;101390.00;5050864;28;20028;-73
2023/01/14 02:40:50;;;;;;;15.27;2.70;;;;;;;13.72;52.13;101383.56;5051222;28;20033;-70
2023/01/14 02:46:29;;;;;;;27.17;3.13;;;;;;;12.97;53.75;101372.22;5044007;28;20088;-70
2023/01/14 02:48:56;;;;;;;22.50;4.00;;;;;;;13.70;52.35;101363.47;5046624;28;20021;-70
2023/01/14 02:51:23;;;;;;;36.50;3.70;;;;;;;13.85;50.75;101367.63;5052141;28;20143;-73
2023/01/14 02:53:48;;;;;;;31.53;4.10;;;;;;;13.50;52.96;101374.22;5049049;28;20060;-73
2023/01/14 02:56:14;;;;;;;24.03;3.37;;;;;;;13.14;52.46;101366.78;5038870;28;20057;-72
2023/01/14 02:59:05;;;;;;;21.07;3.53;;;;;;;13.01;53.33;101347.69;5037729;28;20027;-72
2023/01/14 03:02:10;;;;;;;32.30;3.83;;;;;;;13.67;52.64;101348.59;5050103;28;20226;-70
2023/01/14 03:04:35;;;;;;;27.93;4.10;;;;;;;13.45;53.22;101341.91;5027389;28;20037;-70
2023/01/14 03:07:12;;;;;;;25.23;3.70;;;;;;;13.26;53.05;101347.38;5045335;28;20029;-73
2023/01/14 03:09:47;;;;;;;32.03;4.87;;;;;;;14.31;50.39;101343.19;5044861;28;20033;-72
2023/01/14 03:12:33;;;;;;;25.17;3.57;;;;;;;14.28;51.15;101332.72;5039066;28;20040;-71
2023/01/14 03:15:08;;;;;;;31.73;4.63;;;;;;;14.13;50.16;101327.75;5032377;28;20038;-73
2023/01/14 03:17:40;;;;;;;23.83;4.20;;;;;;;14.39;49.66;101322.88;5032432;28;20033;-72
2023/01/14 03:20:34;;;;;;;34.53;4.50;;;;;;;14.89;48.38;101327.25;5032446;28;20028;-70
2023/01/14 03:23:06;;;;;;;37.27;5.10;;;;;;;13.65;50.92;101310.97;5037726;28;20298;-70
2023/01/14 03:25:35;;;;;;;32.10;4.67;;;;;;;14.14;50.59;101303.19;5037142;28;20033;-70
2023/01/14 03:28:05;;;;;;;35.73;4.73;;;;;;;14.48;50.08;101305.19;5045936;28;20028;-73
2023/01/14 03:30:37;;;;;;;34.63;5.20;;;;;;;14.22;51.21;101293.41;5081888;28;20035;-70
2023/01/14 03:33:09;;;;;;;28.85;4.22;;;;;;;13.86;50.92;101290.50;5048632;28;20503;-70
2023/01/14 03:35:38;;;;;;;28.50;4.03;;;;;;;13.99;51.20;101291.19;5029779;28;20033;-69
2023/01/14 03:38:06;;;;;;;29.47;3.97;;;;;;;14.06;50.89;101283.16;5037823;28;20535;-70
2023/01/14 03:40:35;;;;;;;33.10;4.93;;;;;;;14.00;50.31;101282.38;5049625;28;20119;-71
2023/01/14 03:43:09;;;;;;;38.03;4.60;;;;;;;14.13;51.02;101283.06;5050006;28;20040;-70
2023/01/14 03:45:39;;;;;;;28.80;4.73;;;;;;;13.80;51.60;101269.59;5050505;28;20036;-70
2023/01/14 03:48:06;;;;;;;30.40;5.13;;;;;;;13.59;52.00;101274.31;5040055;28;20489;-70
2023/01/14 03:51:03;;;;;;;35.53;4.87;;;;;;;15.06;48.89;101261.94;5037675;28;20092;-72
2023/01/14 03:53:37;;;;;;;28.27;4.70;;;;;;;14.59;51.05;101255.91;5048925;28;20036;-70
2023/01/14 03:56:11;;;;;;;32.87;5.53;;;;;;;14.55;50.40;101254.22;5044574;28;20047;-73
2023/01/14 03:58:55;;;;;;;23.93;4.90;;;;;;;14.83;49.96;101237.91;5030271;28;20041;-70
2023/01/14 04:01:44;;;;;;;29.27;4.37;;;;;;;14.52;50.37;101238.50;5030454;28;20444;-70
2023/01/14 04:04:11;;;;;;;32.80;5.20;;;;;;;14.52;50.25;101230.59;5038165;28;20116;-71
2023/01/14 04:06:37;;;;;;;32.17;4.67;;;;;;;14.05;51.86;101212.22;5047476;28;20052;-70
2023/01/14 04:09:05;;;;;;;29.03;3.83;;;;;;;14.33;50.72;101215.19;5049746;28;20017;-70
2023/01/14 04:11:31;;;;;;;39.07;5.10;;;;;;;13.66;53.23;101212.03;5050635;28;20110;-71
2023/01/14 04:16:40;;;;;;;46.70;5.87;;;;;;;13.79;55.01;101199.53;5051686;28;20039;-70
2023/01/14 04:19:05;;;;;;;37.03;6.20;;;;;;;13.49;56.62;101179.03;5036364;28;20013;-70
2023/01/14 04:21:31;;;;;;;29.97;5.17;;;;;;;14.39;53.29;101180.88;5046465;28;20599;-71
2023/01/14 04:23:56;;;;;;;29.10;4.23;;;;;;;13.88;55.45;101179.22;5046676;28;20029;-71
2023/01/14 04:26:21;;;;;;;24.37;4.67;;;;;;;15.20;50.67;101173.91;5048210;28;20029;-73
2023/01/14 04:28:47;;;;;;;35.00;4.33;;;;;;;14.75;51.73;101178.41;5048874;28;20017;-73
2023/01/14 04:31:12;;;;;;;40.40;4.13;;;;;;;14.32;51.90;101171.38;5048815;28;20027;-70
2023/01/14 04:33:38;;;;;;;32.90;5.77;;;;;;;13.95;53.61;101169.47;5050511;28;20532;-71
2023/01/14 04:36:03;;;;;;;44.23;5.47;;;;;;;14.08;54.58;101168.34;5049119;28;20489;-71
2023/01/14 04:38:29;;;;;;;29.37;3.77;;;;;;;14.30;53.14;101165.31;5048803;28;20056;-73
2023/01/14 04:40:54;;;;;;;33.83;4.47;;;;;;;13.78;55.34;101166.28;5042295;28;20056;-70
2023/01/14 04:43:20;;;;;;;28.93;4.30;;;;;;;14.07;54.87;101158.72;5031039;28;20021;-70
2023/01/14 04:45:50;;;;;;;25.10;4.10;;;;;;;14.32;54.37;101152.97;5029057;28;20029;-70
2023/01/14 04:48:18;;;;;;;31.77;3.90;;;;;;;14.65;53.34;101150.56;5030216;28;20080;-71
2023/01/14 04:50:45;;;;;;;40.33;5.70;;;;;;;14.17;54.47;101138.38;5046224;28;20382;-70
2023/01/14 04:53:13;;;;;;;32.77;4.20;;;;;;;13.72;54.77;101136.63;5048734;28;20350;-71
2023/01/14 04:55:41;;;;;;;42.77;5.73;;;;;;;13.81;54.92;101139.97;5039777;28;20887;-70
2023/01/14 04:58:08;;;;;;;35.47;4.70;;;;;;;14.37;53.53;101130.09;5028956;28;20087;-70
2023/01/14 05:00:34;;;;;;;27.13;3.77;;;;;;;13.22;55.53;101136.53;5045850;28;20033;-70
2023/01/14 05:03:08;;;;;;;41.07;4.20;;;;;;;13.82;55.44;101137.31;5048852;28;20546;-70
2023/01/14 05:05:34;;;;;;;27.90;3.53;;;;;;;13.93;55.80;101123.97;5048826;28;20045;-70
2023/01/14 05:08:00;;;;;;;31.27;3.40;;;;;;;14.56;53.23;101125.31;5048628;28;20029;-70
2023/01/14 05:10:26;;;;;;;23.30;3.47;;;;;;;13.98;54.76;101116.84;5048351;28;20039;-72
2023/01/14 05:12:56;;;;;;;24.87;3.90;;;;;;;13.46;56.54;101108.16;5050198;28;20032;-70
2023/01/14 05:15:26;;;;;;;29.47;3.40;;;;;;;13.52;55.56;101112.47;5048184;28;20098;-71
2023/01/14 05:17:52;;;;;;;27.73;3.67;;;;;;;14.53;53.18;101109.56;5048742;28;20025;-70
2023/01/14 05:20:18;;;;;;;28.97;3.47;;;;;;;13.93;54.56;101092.44;5047573;28;20078;-70
2023/01/14 05:22:43;;;;;;;27.87;4.40;;;;;;;13.54;55.58;101089.66;5048361;28;20021;-70
2023/01/14 05:25:09;;;;;;;30.90;5.10;;;;;;;13.73;55.66;101075.28;5030915;28;20033;-70
2023/01/14 05:27:34;;;;;;;26.43;4.33;;;;;;;13.60;55.33;101079.06;5028107;28;20026;-71
2023/01/14 05:30:00;;;;;;;31.17;5.33;;;;;;;13.93;54.96;101075.78;5039202;28;20443;-71
2023/01/14 05:32:25;;;;;;;34.17;4.47;;;;;;;13.79;55.07;101069.03;5048432;28;20032;-71
2023/01/14 05:34:50;;;;;;;24.93;4.57;;;;;;;14.03;54.41;101062.44;5040082;28;20029;-71
2023/01/14 05:37:16;;;;;;;32.13;4.23;;;;;;;13.76;54.52;101052.50;5031328;28;20059;-71
2023/01/14 05:39:41;;;;;;;27.73;4.60;;;;;;;14.15;53.59;101049.94;5049130;28;20029;-70
2023/01/14 05:47:34;;;;;;;30.00;3.87;;;;;;;13.59;55.57;101030.03;5049734;28;20052;-71
2023/01/14 05:50:00;;;;;;;39.97;4.50;;;;;;;13.69;56.62;101031.59;5048203;28;20477;-70
2023/01/14 05:52:25;;;;;;;38.70;4.13;;;;;;;13.57;56.76;101016.06;5036749;28;20098;-71
2023/01/14 05:54:51;;;;;;;31.77;5.40;;;;;;;13.61;55.86;101016.88;5028987;28;20029;-70
2023/01/14 05:57:16;;;;;;;28.43;3.10;;;;;;;14.59;52.56;100996.34;5031514;28;20047;-71
2023/01/14 05:59:42;;;;;;;29.33;4.30;;;;;;;14.84;51.66;100987.00;5036247;28;20017;-70
2023/01/14 06:07:36;;;;;;;21.97;4.27;;;;;;;14.16;53.70;100978.06;5050039;28;20047;-71
2023/01/14 06:10:03;;;;;;;24.77;4.30;;;;;;;13.78;55.06;100972.75;5047759;28;20025;-71
2023/01/14 06:12:39;;;;;;;26.10;4.47;;;;;;;14.58;53.35;100959.56;5047391;28;20828;-71
2023/01/14 06:15:05;;;;;;;23.17;4.57;;;;;;;14.18;54.75;100947.38;5047195;28;20416;-71
2023/01/14 06:17:34;;;;;;;28.17;3.97;;;;;;;13.94;54.95;100947.00;5046720;28;20033;-71
2023/01/14 06:20:00;;;;;;;27.83;4.27;;;;;;;14.02;54.55;100934.53;5048710;28;20017;-71
2023/01/14 06:22:26;;;;;;;26.27;3.70;;;;;;;13.25;57.64;100930.88;5047579;28;20021;-71
2023/01/14 06:24:52;;;;;;;23.23;2.70;;;;;;;13.21;57.35;100931.84;5049294;28;20090;-71
2023/01/14 06:27:17;;;;;;;31.57;4.17;;;;;;;13.91;55.55;100905.03;5049140;28;20025;-71
2023/01/14 06:29:42;;;;;;;24.87;3.20;;;;;;;13.86;56.34;100906.88;5047393;28;20029;-71
2023/01/14 06:32:08;;;;;;;32.03;4.87;;;;;;;14.21;55.38;100897.34;5047222;28;20072;-71
2023/01/14 06:34:33;;;;;;;23.97;3.50;;;;;;;14.01;55.90;100895.16;5048250;28;20542;-71
2023/01/14 06:36:58;;;;;;;32.97;4.17;;;;;;;13.63;57.88;100895.13;5049836;28;20056;-70
2023/01/14 06:39:24;;;;;;;25.07;3.23;;;;;;;13.34;58.31;100903.56;5050189;28;20021;-70
2023/01/14 06:41:49;;;;;;;25.77;3.17;;;;;;;13.48;59.32;100870.06;5050918;28;20067;-70
2023/01/14 06:44:16;;;;;;;24.40;2.83;;;;;;;13.61;57.57;100859.28;5049253;28;20067;-70
2023/01/14 06:46:42;;;;;;;32.70;3.30;;;;;;;13.21;60.59;100866.22;5032909;28;20025;-69
2023/01/14 06:49:07;;;;;;;24.13;4.07;;;;;;;13.90;59.21;100848.13;5037826;28;20021;-70
2023/01/14 06:51:33;;;;;;;18.43;2.50;;;;;;;13.63;60.20;100832.09;5050571;28;20403;-70
2023/01/14 06:53:58;;;;;;;23.27;3.20;;;;;;;13.34;59.95;100835.31;5052122;28;20036;-69
2023/01/14 06:56:23;;;;;;;30.00;3.90;;;;;;;12.99;62.16;100829.91;5050461;28;20127;-69
2023/01/14 06:58:49;;;;;;;22.70;3.77;;;;;;;13.50;59.69;100814.88;5045224;28;20029;-69
2023/01/14 07:01:15;;;;;;;22.83;3.17;;;;;;;12.77;63.00;100815.50;5034696;28;20124;-69
2023/01/14 07:03:41;;;;;;;24.17;3.83;;;;;;;12.88;62.51;100789.91;5050842;28;20119;-69
2023/01/14 07:06:07;;;;;;;25.30;3.53;;;;;;;12.41;66.33;100794.34;5052079;28;20052;-69
2023/01/14 07:08:33;;;;;;;24.57;3.50;;;;;;;13.30;64.65;100786.41;5034630;28;20047;-69
2023/01/14 07:10:58;;;;;;;18.87;3.50;;;;;;;13.35;60.99;100774.97;5046869;28;20497;-69
2023/01/14 07:13:24;;;;;;;26.63;3.80;;;;;;;13.29;63.72;100774.22;5046344;28;20029;-69
2023/01/14 07:15:51;;;;;;;18.90;3.73;;;;;;;12.76;64.53;100759.53;5049931;28;20511;-69
2023/01/14 07:18:17;;;;;;;19.53;3.70;;;;;;;13.17;65.31;100759.59;5052507;28;20086;-69
2023/01/14 07:20:43;;;;;;;24.47;4.87;;;;;;;13.03;66.48;100758.09;5050385;28;20017;-69
2023/01/14 07:23:08;;;;;;;23.87;4.47;;;;;;;13.40;64.25;100733.69;5048115;28;20510;-69
2023/01/14 07:25:35;;;;;;;23.70;5.13;;;;;;;12.83;66.48;100728.81;5033458;28;20040;-69
2023/01/14 07:28:01;;;;;;;16.37;3.43;;;;;;;13.42;63.10;100707.41;5050404;28;20489;-69
2023/01/14 07:30:26;;;;;;;24.23;4.00;;;;;;;13.18;64.86;100719.31;5050877;28;20119;-69
2023/01/14 07:32:51;;;;;;;20.97;4.43;;;;;;;13.87;62.26;100703.69;5050746;28;20032;-69
2023/01/14 07:35:17;;;;;;;15.77;3.90;;;;;;;12.79;67.31;100682.56;5044278;28;20107;-68
2023/01/14 07:37:42;;;;;;;19.47;3.73;;;;;;;13.43;64.32;100676.78;5082210;28;20048;-68
2023/01/14 07:40:08;;;;;;;17.90;3.77;;;;;;;13.35;67.17;100669.06;5052156;28;20134;-69
2023/01/14 07:42:34;;;;;;;18.97;4.43;;;;;;;13.50;63.70;100663.44;5049856;28;20604;-69
2023/01/14 07:44:59;;;;;;;22.37;5.57;;;;;;;13.22;67.37;100652.75;5049295;28;20021;-69
2023/01/14 07:47:25;;;;;;;21.43;4.70;;;;;;;13.12;66.13;100631.09;5050370;28;20465;-69
2023/01/14 07:49:50;;;;;;;22.03;5.40;;;;;;;13.40;65.44;100630.47;5049931;28;20029;-69
2023/01/14 07:52:15;;;;;;;16.13;3.87;;;;;;;13.08;67.32;100624.22;5051972;28;20032;-69
2023/01/14 07:54:41;;;;;;;16.87;3.87;;;;;;;13.76;63.91;100616.44;5049567;28;20086;-69
2023/01/14 07:57:09;;;;;;;17.10;4.00;;;;;;;12.94;67.79;100616.66;5041302;28;20036;-69
2023/01/14 07:59:34;;;;;;;12.83;4.07;;;;;;;12.73;69.80;100613.63;5049296;28;20087;-69
2023/01/14 08:02:00;;;;;;;12.93;4.30;;;;;;;13.93;63.94;100593.19;5052136;28;20550;-69
2023/01/14 08:04:25;;;;;;;15.43;3.90;;;;;;;13.24;66.37;100609.81;5040475;28;20032;-69
2023/01/14 08:06:50;;;;;;;15.93;4.30;;;;;;;12.82;71.03;100583.69;5038860;28;20396;-71
2023/01/14 08:09:17;;;;;;;16.43;4.13;;;;;;;13.09;69.03;100569.94;5047121;28;20040;-69
2023/01/14 08:11:43;;;;;;;16.87;4.77;;;;;;;13.48;66.44;100565.50;5049527;28;20043;-69
2023/01/14 08:14:09;;;;;;;14.23;4.13;;;;;;;12.98;69.71;100565.84;5048705;28;20036;-69
2023/01/14 08:16:34;;;;;;;17.20;4.97;;;;;;;13.19;68.26;100553.09;5047000;28;20024;-69
2023/01/14 08:18:59;;;;;;;13.33;5.70;;;;;;;13.79;66.73;100542.78;5045584;28;20033;-69
2023/01/14 08:21:25;;;;;;;11.90;4.90;;;;;;;13.63;68.10;100543.22;5050546;28;20361;-69
2023/01/14 08:23:50;;;;;;;13.77;4.67;;;;;;;13.96;68.11;100530.03;5050102;28;20309;-69
2023/01/14 08:26:15;;;;;;;13.23;5.23;;;;;;;12.51;72.89;100544.22;5048419;28;20312;-69
2023/01/14 08:28:41;;;;;;;20.00;6.37;;;;;;;13.52;71.27;100514.63;5048643;28;20393;-69
2023/01/14 08:31:08;;;;;;;15.93;5.93;;;;;;;13.62;69.20;100512.59;5048520;28;20036;-69
2023/01/14 08:33:34;;;;;;;12.57;5.57;;;;;;;13.60;70.62;100501.28;5046145;28;20037;-67
2023/01/14 08:36:08;;;;;;;18.27;6.33;;;;;;;13.60;69.25;100495.16;5044660;28;20408;-69
2023/01/14 08:38:38;;;;;;;13.73;6.33;;;;;;;13.53;71.24;100489.22;5030302;28;20465;-69
2023/01/14 08:41:04;;;;;;;18.47;6.50;;;;;;;13.89;67.99;100482.06;5040011;28;20033;-69
2023/01/14 08:43:30;;;;;;;12.00;6.20;;;;;;;13.44;70.45;100489.50;5031484;28;20029;-69
2023/01/14 08:45:55;;;;;;;20.90;7.27;;;;;;;13.52;70.99;100471.75;5049873;28;20025;-68
2023/01/14 08:48:20;;;;;;;11.70;6.33;;;;;;;12.83;76.22;100477.00;5045221;28;20112;-69
2023/01/14 08:50:46;;;;;;;16.00;6.83;;;;;;;13.69;73.28;100469.50;5087159;28;20036;-70
2023/01/14 08:53:11;;;;;;;16.17;6.60;;;;;;;13.51;72.98;100444.63;5048162;28;20075;-70
2023/01/14 08:55:38;;;;;;;16.90;7.07;;;;;;;13.28;73.63;100439.97;5050959;28;20032;-70
2023/01/14 08:58:07;;;;;;;18.03;7.23;;;;;;;13.96;72.22;100430.19;5042591;28;20033;-70
2023/01/14 09:00:33;;;;;;;15.40;7.90;;;;;;;13.69;72.98;100409.09;5028058;28;20120;-70
2023/01/14 09:02:59;;;;;;;15.03;5.33;;;;;;;13.69;72.80;100390.69;5049424;28;20123;-69
2023/01/14 09:05:24;;;;;;;19.47;5.60;;;;;;;14.23;72.18;100382.91;5048875;28;20152;-70
2023/01/14 09:18:48;;;;;;;10.07;4.07;;;;;;;14.15;68.50;100366.53;5034610;28;20528;-69
2023/01/14 09:21:14;;;;;;;9.30;3.97;;;;;;;14.26;71.66;100359.19;5042414;28;20045;-69
2023/01/14 09:23:40;;;;;;;10.27;4.00;;;;;;;14.65;68.16;100337.72;5049686;28;20068;-68
2023/01/14 09:26:05;;;;;;;10.37;3.50;;;;;;;13.80;73.17;100355.38;5048968;28;20029;-69
2023/01/14 09:28:30;;;;;;;11.33;3.87;;;;;;;14.69;72.25;100347.22;5046827;28;20353;-69
2023/01/14 09:30:56;;;;;;;14.07;5.77;;;;;;;14.55;71.38;100349.47;5047277;28;20033;-69
2023/01/14 09:33:21;;;;;;;12.73;4.47;;;;;;;14.24;69.38;100345.22;5037779;28;20542;-68
2023/01/14 09:35:47;;;;;;;18.40;4.33;;;;;;;14.76;69.02;100330.31;5045782;28;20392;-69
2023/01/14 09:38:12;;;;;;;11.27;4.00;;;;;;;14.07;71.45;100322.13;5049138;28;20053;-69
2023/01/14 09:40:39;;;;;;;13.80;4.60;;;;;;;13.82;72.79;100311.53;5078348;28;20055;-69
2023/01/14 09:43:13;;;;;;;11.47;3.77;;;;;;;14.23;72.37;100296.16;5049073;28;20082;-69
2023/01/14 09:45:38;;;;;;;17.40;4.67;;;;;;;14.24;69.29;100303.16;5049374;28;20036;-69
2023/01/14 09:48:12;;;;;;;18.03;4.43;;;;;;;14.10;73.74;100292.25;5048269;28;20029;-69
2023/01/14 09:50:48;;;;;;;11.57;3.60;;;;;;;14.82;70.06;100267.88;5034704;28;20033;-69
2023/01/14 09:53:33;;;;;;;8.67;3.70;;;;;;;14.32;70.01;100274.84;5034595;28;20037;-68
2023/01/14 09:56:11;;;;;;;18.43;4.37;;;;;;;13.85;73.53;100272.91;5045990;28;20063;-68
2023/01/14 09:58:43;;;;;;;13.23;3.77;;;;;;;15.27;68.05;100264.44;5047723;28;20112;-69
2023/01/14 10:01:35;;;;;;;12.10;4.25;;;;;;;14.90;70.74;100252.66;5046826;28;20038;-69
2023/01/14 10:04:46;;;;;;;9.80;3.70;;;;;;;14.39;73.10;100234.28;5046785;28;20090;-69
2023/01/14 10:07:13;;;;;;;11.00;3.57;;;;;;;15.12;69.92;100217.63;5035663;28;20052;-69
2023/01/14 10:09:46;;;;;;;8.50;3.00;;;;;;;13.53;81.80;100206.53;5045496;28;20029;-71
2023/01/14 10:12:18;;;;;;;7.33;3.57;;;;;;;14.12;76.75;100198.44;5028013;28;20045;-70
2023/01/14 10:15:08;;;;;;;14.40;3.85;;;;;;;14.53;75.44;100180.34;5051791;28;20039;-71
2023/01/14 10:17:38;;;;;;;14.20;3.00;;;;;;;14.16;75.36;100169.34;5041060;28;20033;-70
2023/01/14 10:20:12;;;;;;;11.33;3.83;;;;;;;13.87;80.17;100165.13;5042962;28;20424;-71
2023/01/14 10:22:49;;;;;;;13.77;3.17;;;;;;;14.68;74.13;100150.84;5031462;28;20033;-71
2023/01/14 10:25:17;;;;;;;7.57;3.10;;;;;;;13.94;76.49;100137.72;5030477;28;20036;-70
2023/01/14 10:27:47;;;;;;;12.37;2.90;;;;;;;14.55;75.83;100133.81;5050274;28;20082;-71
2023/01/14 10:30:18;;;;;;;8.93;3.40;;;;;;;14.67;75.38;100128.13;5052721;28;20438;-72
2023/01/14 10:32:47;;;;;;;7.93;2.93;;;;;;;14.86;72.50;100127.41;5050083;28;20492;-70
2023/01/14 10:35:16;;;;;;;9.57;2.60;;;;;;;14.78;74.26;100114.53;5082779;28;20252;-70
2023/01/14 10:37:42;;;;;;;10.27;3.13;;;;;;;14.99;75.82;100102.31;5050724;28;20480;-70
2023/01/14 10:40:21;;;;;;;10.23;3.17;;;;;;;15.21;72.60;100098.81;5048245;28;20048;-71
2023/01/14 10:42:46;;;;;;;4.67;2.47;;;;;;;14.53;79.53;100093.56;5051114;28;20021;-71
2023/01/14 10:45:12;;;;;;;8.77;3.07;;;;;;;15.37;74.56;100068.31;5083854;28;20028;-70
2023/01/14 10:47:40;;;;;;;5.50;3.03;;;;;;;15.37;74.04;100065.69;5049143;28;20035;-71
2023/01/14 10:50:17;;;;;;;7.27;2.80;;;;;;;14.79;78.22;100062.78;5042079;28;20025;-70
2023/01/14 10:52:43;;;;;;;8.90;2.20;;;;;;;14.52;80.00;100040.13;5050239;28;20507;-70
2023/01/14 10:55:15;;;;;;;4.97;2.07;;;;;;;14.58;79.76;100045.13;5051057;28;20060;-71
2023/01/14 10:58:01;;;;;;;6.80;2.77;;;;;;;14.80;79.93;100030.31;5032227;28;20044;-71
2023/01/14 11:00:35;;;;;;;7.13;2.30;;;;;;;15.02;79.10;100020.59;5039997;28;20021;-71
2023/01/14 11:03:04;;;;;;;6.27;2.40;;;;;;;14.45;80.99;100037.78;5047258;28;20033;-71
2023/01/14 11:05:34;;;;;;;9.10;2.30;;;;;;;15.37;78.65;100027.94;5050339;28;20045;-70
2023/01/14 11:08:15;;;;;;;6.53;2.40;;;;;;;15.50;74.01;100017.75;5050720;28;20087;-70
2023/01/14 11:10:41;;;;;;;6.13;2.17;;;;;;;15.43;75.22;100007.47;5049598;28;20033;-71
2023/01/14 11:13:14;;;;;;;5.40;2.20;;;;;;;15.68;75.61;99998.50;5051800;28;20029;-71
2023/01/14 11:15:41;;;;;;;10.05;2.55;;;;;;;15.19;77.78;99990.09;5051332;28;20059;-71
2023/01/14 11:18:35;;;;;;;13.40;3.00;;;;;;;15.04;81.82;100000.38;5034240;28;20641;-70
2023/01/14 11:21:16;;;;;;;6.47;2.03;;;;;;;14.79;82.70;99982.09;5036905;28;20041;-71
2023/01/14 11:24:07;;;;;;;7.73;2.77;;;;;;;14.90;85.07;99979.00;5033164;28;20083;-70
2023/01/14 11:26:37;;;;;;;7.67;3.37;;;;;;;14.82;82.40;99967.94;5030168;28;20040;-71
2023/01/14 11:29:26;;;;;;;4.50;2.00;;;;;;;14.69;80.52;99963.19;5038351;28;20052;-71
2023/01/14 11:31:55;;;;;;;4.60;1.70;;;;;;;16.24;72.59;99957.31;5037407;28;20025;-71
2023/01/14 11:34:23;;;;;;;10.10;2.13;;;;;;;14.99;78.29;99947.06;5049032;28;20573;-71
2023/01/14 11:36:49;;;;;;;2.50;1.40;;;;;;;14.54;84.41;99948.00;5050011;28;20064;-71
2023/01/14 11:39:21;;;;;;;3.50;1.30;;;;;;;15.14;75.72;99942.06;5031991;28;20128;-70
2023/01/14 11:41:47;;;;;;;2.35;1.55;;;;;;;14.50;86.94;99930.66;5040815;28;20095;-71
2023/01/14 11:44:15;;;;;;;5.90;1.47;;;;;;;15.35;79.42;99932.38;5050395;28;20037;-71
2023/01/14 11:46:44;;;;;;;3.07;1.67;;;;;;;15.84;77.58;99910.88;5041788;28;20044;-70
2023/01/14 11:49:12;;;;;;;5.87;1.37;;;;;;;14.66;81.88;99915.13;5047529;28;20021;-70
2023/01/14 11:51:40;;;;;;;3.80;1.43;;;;;;;15.35;77.82;99899.00;5049962;28;20021;-70
2023/01/14 11:54:16;;;;;;;4.47;1.63;;;;;;;15.39;81.63;99895.31;5049161;28;20029;-70
2023/01/14 11:56:43;;;;;;;5.57;1.17;;;;;;;15.90;76.47;99889.53;5050323;28;20452;-71